| time (UTC) | temp F | wind direction | speed knots | gust knots | rain 1hr in | rain 24hr in | rain mn in | humidity % | barometer mb |
| 20260508073038 | 52 | 175 | 0.0 | 6.1 | 0.00 | 0.00 | 0.00 | 55 | 1018.3 |
| 20260508053037 | 47 | 137 | 0.0 | 0.0 | 0.00 | 0.00 | 0.00 | 65 | 1017.5 |
| 20260508043038 | 44 | 130 | 0.0 | 0.0 | 0.00 | 0.00 | 0.00 | 70 | 1017.3 |
| 20260508033036 | 43 | 130 | 0.0 | 0.0 | 0.00 | 0.00 | 0.00 | 67 | 1017.1 |
| 20260508023036 | 44 | 130 | 0.0 | 0.0 | 0.00 | 0.00 | 0.00 | 64 | 1017.2 |
| 20260508003036 | 49 | 130 | 0.0 | 0.9 | 0.00 | 0.00 | 0.00 | 61 | 1017.1 |
| 20260507233035 | 51 | 131 | 0.0 | 2.6 | 0.00 | 0.00 | 0.00 | 59 | 1017.2 |
| 20260507223035 | 51 | 144 | 0.9 | 2.6 | 0.00 | 0.00 | 0.00 | 57 | 1017.1 |
| 20260507213035 | 51 | 133 | 0.9 | 2.6 | 0.00 | 0.00 | 0.00 | 55 | 1017.1 |
| 20260507203035 | 51 | 159 | 0.0 | 1.7 | 0.00 | 0.00 | 0.00 | 57 | 1016.7 |
| 20260507193035 | 53 | 161 | 0.0 | 4.3 | 0.00 | 0.00 | 0.00 | 55 | 1016.2 |
| 20260507183034 | 55 | 247 | 0.9 | 3.5 | 0.00 | 0.00 | 0.00 | 46 | 1016.2 |
| 20260507173034 | 56 | 140 | 0.9 | 4.3 | 0.00 | 0.00 | 0.00 | 43 | 1015.8 |
| 20260507163033 | 57 | 137 | 2.6 | 6.1 | 0.00 | 0.00 | 0.00 | 40 | 1015.7 |
| 20260507153033 | 58 | 144 | 1.7 | 5.2 | 0.00 | 0.00 | 0.00 | 38 | 1015.9 |
| 20260507143032 | 59 | 243 | 1.7 | 7.8 | 0.00 | 0.00 | 0.00 | 40 | 1016.3 |
| 20260507133032 | 58 | 99 | 1.7 | 9.6 | 0.00 | 0.00 | 0.00 | 42 | 1016.9 |
| 20260507123031 | 56 | 118 | 1.7 | 8.7 | 0.00 | 0.00 | 0.00 | 46 | 1016.9 |
| 20260507113030 | 53 | 141 | 0.9 | 6.1 | 0.00 | 0.00 | 0.00 | 51 | 1017.4 |
| 20260507103031 | 50 | 123 | 2.6 | 6.1 | 0.00 | 0.00 | 0.00 | 53 | 1017.6 |
| 20260507093031 | 48 | 147 | 1.7 | 6.1 | 0.00 | 0.00 | 0.00 | 56 | 1017.5 |